Wetterdaten: aktuell Samstag, 11.07.2020 01:10
Datum Zeit Temp. Feuchte Luftdruck Regen Wind Richtung Richtung Sonnenschein UV Solar Windchill Windben
11.07.2020 01:10 17.6 C 95 % 1016.3 hPa 0.4 mm 1.2 km/h SW 222 0 min 0.0 UV-I 0.0 W/m 17.6 C 4.8 km/h
11.07.2020 01:00 17.7 C 94 % 1016.4 hPa 0.4 mm 2.6 km/h SW 222 0 min 0.0 UV-I 0.0 W/m 17.7 C 6.4 km/h
11.07.2020 00:50 17.7 C 94 % 1016.3 hPa 0.8 mm 0.6 km/h S 181 0 min 0.0 UV-I 0.0 W/m 17.7 C 3.2 km/h
11.07.2020 00:40 17.8 C 94 % 1016.3 hPa 0.2 mm 0.0 km/h S 181 0 min 0.0 UV-I 0.0 W/m 17.8 C 0.0 km/h
11.07.2020 00:30 17.8 C 94 % 1016.0 hPa 0.2 mm 0.0 km/h S 181 0 min 0.0 UV-I 0.0 W/m 17.8 C 0.0 km/h
11.07.2020 00:20 17.7 C 94 % 1015.6 hPa 0.4 mm 0.9 km/h S 182 0 min 0.0 UV-I 0.0 W/m 17.7 C 6.4 km/h
11.07.2020 00:10 17.8 C 94 % 1015.9 hPa 0.0 mm 2.3 km/h S 186 0 min 0.0 UV-I 0.0 W/m 17.8 C 8.0 km/h
11.07.2020 00:00 17.7 C 93 % 1015.6 hPa 0.0 mm 0.0 km/h S-SO 166 0 min 0.0 UV-I 0.0 W/m 17.7 C 0.0 km/h
10.07.2020 23:50 18.1 C 94 % 1015.5 hPa 0.4 mm 2.2 km/h S-SO 166 0 min 0.0 UV-I 0.0 W/m 18.1 C 8.0 km/h
10.07.2020 23:40 18.2 C 93 % 1015.4 hPa 1.2 mm 0.1 km/h S-SW 192 0 min 0.0 UV-I 0.0 W/m 18.2 C 1.6 km/h
10.07.2020 23:30 18.6 C 93 % 1015.3 hPa 0.6 mm 1.2 km/h S-SW 201 0 min 0.0 UV-I 0.0 W/m 18.6 C 3.2 km/h
10.07.2020 23:20 18.7 C 92 % 1015.6 hPa 1.6 mm 4.3 km/h S-SW 201 0 min 0.0 UV-I 0.0 W/m 18.7 C 11.3 km/h
10.07.2020 23:10 18.9 C 92 % 1015.9 hPa 1.2 mm 8.8 km/h SW 215 0 min 0.0 UV-I 0.0 W/m 18.9 C 16.1 km/h
10.07.2020 23:00 18.8 C 92 % 1015.2 hPa 0.0 mm 2.7 km/h W-SW 240 0 min 0.0 UV-I 0.0 W/m 18.8 C 11.3 km/h
10.07.2020 22:50 18.9 C 92 % 1014.5 hPa 0.0 mm 2.1 km/h O-SO 115 0 min 0.0 UV-I 0.0 W/m 18.9 C 4.8 km/h
10.07.2020 22:40 18.7 C 91 % 1014.3 hPa 0.0 mm 0.7 km/h O-SO 112 0 min 0.0 UV-I 0.0 W/m 18.7 C 3.2 km/h
10.07.2020 22:30 18.8 C 90 % 1014.3 hPa 0.2 mm 1.5 km/h O-NO 67 0 min 0.0 UV-I 0.0 W/m 18.8 C 11.3 km/h
10.07.2020 22:20 18.8 C 92 % 1014.0 hPa 0.0 mm 4.1 km/h O 101 0 min 0.0 UV-I 0.0 W/m 18.8 C 9.7 km/h
10.07.2020 22:10 19.0 C 91 % 1013.7 hPa 0.0 mm 2.4 km/h S-SO 167 0 min 0.0 UV-I 0.0 W/m 19.0 C 6.4 km/h
10.07.2020 22:00 18.8 C 90 % 1013.7 hPa 0.0 mm 1.0 km/h S-SO 167 0 min 0.0 UV-I 0.0 W/m 18.8 C 4.8 km/h
10.07.2020 21:50 18.9 C 89 % 1013.7 hPa 0.0 mm 2.0 km/h S-SO 167 0 min 0.0 UV-I 0.0 W/m 18.9 C 6.4 km/h
10.07.2020 21:40 19.4 C 87 % 1013.6 hPa 0.0 mm 2.9 km/h S-SO 167 0 min 0.0 UV-I 0.0 W/m 19.4 C 8.0 km/h
10.07.2020 21:30 20.5 C 80 % 1013.5 hPa 0.8 mm 6.4 km/h W 276 0 min 0.0 UV-I 0.0 W/m 20.5 C 17.7 km/h
10.07.2020 21:20 22.2 C 70 % 1013.5 hPa 0.0 mm 5.8 km/h N-NW 344 0 min 0.0 UV-I 0.0 W/m 22.2 C 17.7 km/h
10.07.2020 21:10 23.3 C 65 % 1013.3 hPa 0.2 mm 4.9 km/h N 355 0 min 0.0 UV-I 0.0 W/m 23.3 C 16.1 km/h
10.07.2020 21:00 24.0 C 57 % 1012.9 hPa 0.0 mm 5.6 km/h W-NW 285 0 min 0.0 UV-I 0.0 W/m 24.0 C 12.9 km/h
10.07.2020 20:50 24.2 C 56 % 1012.9 hPa 0.0 mm 7.3 km/h NW 312 0 min 0.0 UV-I 7.0 W/m 24.2 C 16.1 km/h
10.07.2020 20:40 24.4 C 55 % 1013.0 hPa 0.0 mm 8.0 km/h NW 305 0 min 0.0 UV-I 11.0 W/m 24.4 C 17.7 km/h
10.07.2020 20:30 24.7 C 55 % 1012.9 hPa 0.0 mm 4.7 km/h W-NW 286 0 min 0.0 UV-I 30.0 W/m 24.7 C 12.9 km/h
10.07.2020 20:20 24.8 C 54 % 1012.7 hPa 0.0 mm 6.5 km/h W 265 0 min 0.0 UV-I 67.0 W/m 24.8 C 12.9 km/h
10.07.2020 20:10 25.0 C 53 % 1012.5 hPa 0.0 mm 9.0 km/h W-NW 288 0 min 0.0 UV-I 77.0 W/m 25.0 C 22.5 km/h
10.07.2020 20:00 25.2 C 52 % 1012.2 hPa 0.0 mm 9.4 km/h NW 310 0 min 0.0 UV-I 58.0 W/m 25.2 C 17.7 km/h
10.07.2020 19:50 25.6 C 51 % 1012.1 hPa 0.0 mm 9.0 km/h W-NW 284 0 min 0.0 UV-I 58.0 W/m 25.6 C 17.7 km/h
10.07.2020 19:40 25.8 C 51 % 1012.0 hPa 0.0 mm 11.4 km/h NW 319 0 min 0.0 UV-I 88.0 W/m 25.8 C 20.9 km/h
10.07.2020 19:30 26.2 C 49 % 1011.7 hPa 0.0 mm 7.6 km/h W-NW 294 0 min 0.0 UV-I 72.0 W/m 26.2 C 17.7 km/h
10.07.2020 19:20 26.1 C 50 % 1011.6 hPa 0.0 mm 7.2 km/h NW 313 0 min 0.5 UV-I 160.0 W/m 26.1 C 17.7 km/h
10.07.2020 19:10 26.3 C 49 % 1011.5 hPa 0.0 mm 6.2 km/h NW 313 0 min 0.5 UV-I 148.0 W/m 26.3 C 14.5 km/h
10.07.2020 19:00 26.7 C 49 % 1011.5 hPa 0.0 mm 7.8 km/h NW 315 0 min 0.6 UV-I 77.0 W/m 26.7 C 20.9 km/h
10.07.2020 18:50 27.2 C 48 % 1011.5 hPa 0.0 mm 5.8 km/h NW 319 0 min 0.6 UV-I 174.0 W/m 27.2 C 16.1 km/h
10.07.2020 18:40 27.3 C 46 % 1011.3 hPa 0.0 mm 8.9 km/h NW 323 10 min 1.0 UV-I 383.0 W/m 27.3 C 19.3 km/h
10.07.2020 18:30 27.2 C 47 % 1011.2 hPa 0.0 mm 8.7 km/h N-NW 345 0 min 0.8 UV-I 163.0 W/m 27.2 C 19.3 km/h
10.07.2020 18:20 27.2 C 46 % 1011.2 hPa 0.0 mm 12.7 km/h NW 313 0 min 1.0 UV-I 214.0 W/m 27.2 C 25.7 km/h
10.07.2020 18:10 27.6 C 46 % 1011.2 hPa 0.0 mm 11.2 km/h NW 323 0 min 0.9 UV-I 193.0 W/m 27.6 C 25.7 km/h
10.07.2020 18:00 28.2 C 44 % 1011.2 hPa 0.0 mm 12.8 km/h W-SW 251 10 min 1.9 UV-I 504.0 W/m 28.2 C 29.0 km/h
10.07.2020 17:50 28.4 C 45 % 1011.1 hPa 0.0 mm 12.4 km/h W-NW 298 10 min 2.1 UV-I 492.0 W/m 28.4 C 22.5 km/h
10.07.2020 17:40 27.9 C 48 % 1011.2 hPa 0.0 mm 7.8 km/h W-SW 254 10 min 2.3 UV-I 606.0 W/m 27.9 C 17.7 km/h
10.07.2020 17:30 27.8 C 47 % 1011.3 hPa 0.0 mm 12.2 km/h W 269 0 min 1.6 UV-I 178.0 W/m 27.8 C 24.1 km/h
10.07.2020 17:20 27.7 C 49 % 1011.2 hPa 0.0 mm 11.9 km/h W-NW 294 10 min 2.8 UV-I 603.0 W/m 27.7 C 29.0 km/h
10.07.2020 17:10 27.4 C 49 % 1011.1 hPa 0.0 mm 12.5 km/h NW 311 0 min 0.9 UV-I 132.0 W/m 27.4 C 25.7 km/h
10.07.2020 17:00 28.6 C 48 % 1011.1 hPa 0.0 mm 10.4 km/h NW 317 0 min 1.8 UV-I 155.0 W/m 28.6 C 20.9 km/h
10.07.2020 16:50 28.3 C 50 % 1010.9 hPa 0.0 mm 8.3 km/h NW 322 10 min 3.5 UV-I 751.0 W/m 28.3 C 16.1 km/h
10.07.2020 16:40 28.2 C 49 % 1010.9 hPa 0.0 mm 9.8 km/h N-NW 327 0 min 2.0 UV-I 199.0 W/m 28.2 C 20.9 km/h
10.07.2020 16:30 28.3 C 49 % 1010.9 hPa 0.0 mm 5.9 km/h N 355 0 min 2.0 UV-I 225.0 W/m 28.3 C 16.1 km/h
10.07.2020 16:20 27.7 C 50 % 1010.9 hPa 0.0 mm 7.7 km/h N-NW 336 0 min 0.8 UV-I 121.0 W/m 27.7 C 16.1 km/h
10.07.2020 16:10 28.1 C 50 % 1011.0 hPa 0.0 mm 7.5 km/h NW 311 0 min 1.3 UV-I 141.0 W/m 28.1 C 16.1 km/h
10.07.2020 16:00 28.2 C 48 % 1010.9 hPa 0.0 mm 6.6 km/h NW 320 0 min 1.4 UV-I 162.0 W/m 28.2 C 14.5 km/h
10.07.2020 15:50 28.4 C 49 % 1011.1 hPa 0.0 mm 5.4 km/h W-SW 252 0 min 1.7 UV-I 195.0 W/m 28.4 C 12.9 km/h
10.07.2020 15:40 29.1 C 48 % 1011.2 hPa 0.0 mm 6.1 km/h W-NW 294 0 min 2.1 UV-I 142.0 W/m 29.1 C 12.9 km/h
10.07.2020 15:30 28.7 C 48 % 1011.2 hPa 0.0 mm 8.6 km/h N-NW 348 0 min 2.8 UV-I 220.0 W/m 28.7 C 20.9 km/h
10.07.2020 15:20 29.0 C 48 % 1011.3 hPa 0.0 mm 9.0 km/h W-NW 293 10 min 2.9 UV-I 656.0 W/m 29.0 C 19.3 km/h
10.07.2020 15:10 28.9 C 49 % 1011.3 hPa 0.0 mm 7.1 km/h NW 304 0 min 3.6 UV-I 311.0 W/m 28.9 C 17.7 km/h
10.07.2020 15:00 29.2 C 48 % 1011.3 hPa 0.0 mm 11.9 km/h NW 314 0 min 3.7 UV-I 306.0 W/m 29.2 C 24.1 km/h
10.07.2020 14:50 29.3 C 50 % 1011.3 hPa 0.0 mm 9.3 km/h N-NW 331 10 min 3.7 UV-I 1037.0 W/m 29.3 C 20.9 km/h
10.07.2020 14:40 28.3 C 49 % 1011.5 hPa 0.0 mm 13.4 km/h N 350 0 min 3.0 UV-I 288.0 W/m 28.3 C 29.0 km/h
10.07.2020 14:30 29.4 C 46 % 1011.2 hPa 0.0 mm 11.6 km/h N-NO 20 0 min 2.9 UV-I 251.0 W/m 29.4 C 27.4 km/h
10.07.2020 14:20 30.6 C 46 % 1011.2 hPa 0.0 mm 11.3 km/h NW 309 10 min 6.9 UV-I 947.0 W/m 30.6 C 22.5 km/h
10.07.2020 14:10 30.3 C 48 % 1011.3 hPa 0.0 mm 9.3 km/h W-NW 302 10 min 7.1 UV-I 998.0 W/m 30.3 C 22.5 km/h
10.07.2020 14:00 29.9 C 47 % 1011.4 hPa 0.0 mm 8.8 km/h N-NW 342 10 min 4.9 UV-I 1013.0 W/m 29.9 C 19.3 km/h
10.07.2020 13:50 30.1 C 47 % 1011.4 hPa 0.0 mm 10.4 km/h NW 315 10 min 6.7 UV-I 1013.0 W/m 30.1 C 17.7 km/h
10.07.2020 13:40 30.4 C 46 % 1011.3 hPa 0.0 mm 10.0 km/h W 273 10 min 6.9 UV-I 1034.0 W/m 30.4 C 19.3 km/h
10.07.2020 13:30 29.9 C 47 % 1011.5 hPa 0.0 mm 10.7 km/h W 275 10 min 7.1 UV-I 956.0 W/m 29.9 C 20.9 km/h
10.07.2020 13:20 29.9 C 47 % 1011.7 hPa 0.0 mm 10.4 km/h W-SW 242 10 min 7.1 UV-I 981.0 W/m 29.9 C 22.5 km/h
10.07.2020 13:10 29.7 C 46 % 1011.8 hPa 0.0 mm 7.7 km/h SW 218 10 min 7.2 UV-I 1063.0 W/m 29.7 C 17.7 km/h
10.07.2020 13:00 28.5 C 49 % 1011.7 hPa 0.0 mm 6.5 km/h W 271 10 min 5.7 UV-I 508.0 W/m 28.5 C 22.5 km/h
10.07.2020 12:50 28.3 C 49 % 1011.8 hPa 0.0 mm 6.1 km/h W-SW 248 0 min 4.5 UV-I 448.0 W/m 28.3 C 17.7 km/h
10.07.2020 12:40 28.6 C 48 % 1011.7 hPa 0.0 mm 7.1 km/h N-NW 328 10 min 7.1 UV-I 494.0 W/m 28.6 C 17.7 km/h
10.07.2020 12:30 27.9 C 51 % 1011.8 hPa 0.0 mm 7.0 km/h NW 319 0 min 6.6 UV-I 352.0 W/m 27.9 C 16.1 km/h
10.07.2020 12:20 28.1 C 49 % 1011.8 hPa 0.0 mm 5.5 km/h W-NW 294 0 min 4.1 UV-I 422.0 W/m 28.1 C 14.5 km/h
10.07.2020 12:10 27.6 C 51 % 1011.7 hPa 0.0 mm 7.1 km/h W 263 0 min 4.0 UV-I 441.0 W/m 27.6 C 17.7 km/h
10.07.2020 12:00 28.3 C 49 % 1011.7 hPa 0.0 mm 6.7 km/h W 273 10 min 6.1 UV-I 868.0 W/m 28.3 C 16.1 km/h
10.07.2020 11:50 27.8 C 50 % 1011.9 hPa 0.0 mm 6.5 km/h NW 309 10 min 5.8 UV-I 828.0 W/m 27.8 C 16.1 km/h
10.07.2020 11:40 28.1 C 50 % 1011.9 hPa 0.0 mm 8.1 km/h W-SW 249 10 min 5.4 UV-I 780.0 W/m 28.1 C 16.1 km/h
10.07.2020 11:30 27.8 C 49 % 1011.9 hPa 0.0 mm 7.3 km/h SW 221 10 min 5.2 UV-I 756.0 W/m 27.8 C 16.1 km/h
10.07.2020 11:20 27.4 C 50 % 1011.9 hPa 0.0 mm 6.6 km/h W 273 10 min 4.9 UV-I 740.0 W/m 27.4 C 16.1 km/h
10.07.2020 11:10 27.2 C 51 % 1012.0 hPa 0.0 mm 6.7 km/h W-SW 244 10 min 4.7 UV-I 726.0 W/m 27.2 C 16.1 km/h
10.07.2020 11:00 26.9 C 49 % 1012.2 hPa 0.0 mm 6.2 km/h W-SW 240 10 min 4.4 UV-I 701.0 W/m 26.9 C 14.5 km/h
10.07.2020 10:50 26.7 C 50 % 1012.2 hPa 0.0 mm 8.5 km/h W-SW 243 10 min 4.2 UV-I 687.0 W/m 26.7 C 16.1 km/h
10.07.2020 10:40 26.4 C 51 % 1012.2 hPa 0.0 mm 8.3 km/h W-SW 252 10 min 3.9 UV-I 666.0 W/m 26.4 C 17.7 km/h
10.07.2020 10:30 25.9 C 51 % 1012.2 hPa 0.0 mm 10.7 km/h W-SW 254 10 min 3.7 UV-I 647.0 W/m 25.9 C 17.7 km/h
10.07.2020 10:20 25.8 C 52 % 1012.2 hPa 0.0 mm 7.3 km/h W 263 10 min 3.5 UV-I 622.0 W/m 25.8 C 17.7 km/h
10.07.2020 10:10 25.6 C 54 % 1012.2 hPa 0.0 mm 6.9 km/h W-SW 256 10 min 3.3 UV-I 601.0 W/m 25.6 C 14.5 km/h
10.07.2020 10:00 25.1 C 56 % 1012.2 hPa 0.0 mm 5.9 km/h W-NW 290 10 min 3.0 UV-I 577.0 W/m 25.1 C 12.9 km/h
10.07.2020 09:50 24.4 C 59 % 1012.2 hPa 0.0 mm 5.1 km/h NW 323 10 min 2.8 UV-I 554.0 W/m 24.4 C 9.7 km/h
10.07.2020 09:40 23.9 C 60 % 1012.1 hPa 0.0 mm 5.9 km/h W-SW 247 10 min 2.5 UV-I 531.0 W/m 23.9 C 14.5 km/h
10.07.2020 09:30 23.7 C 61 % 1012.2 hPa 0.0 mm 4.4 km/h W-SW 255 10 min 2.3 UV-I 503.0 W/m 23.7 C 11.3 km/h
10.07.2020 09:20 23.3 C 63 % 1012.2 hPa 0.0 mm 5.1 km/h W 267 10 min 2.1 UV-I 478.0 W/m 23.3 C 12.9 km/h
10.07.2020 09:10 22.6 C 63 % 1012.1 hPa 0.0 mm 6.5 km/h W-SW 244 10 min 1.9 UV-I 452.0 W/m 22.6 C 14.5 km/h
10.07.2020 09:00 22.3 C 67 % 1012.1 hPa 0.0 mm 3.4 km/h W-NW 300 10 min 1.7 UV-I 425.0 W/m 22.3 C 8.0 km/h
10.07.2020 08:50 21.6 C 69 % 1011.9 hPa 0.0 mm 3.5 km/h W-NW 300 10 min 1.5 UV-I 401.0 W/m 21.6 C 6.4 km/h
10.07.2020 08:40 20.8 C 72 % 1012.0 hPa 0.0 mm 3.6 km/h W-NW 297 10 min 1.3 UV-I 364.0 W/m 20.8 C 8.0 km/h
10.07.2020 08:30 20.3 C 72 % 1012.0 hPa 0.0 mm 3.7 km/h W-NW 297 10 min 1.0 UV-I 318.0 W/m 20.3 C 8.0 km/h
10.07.2020 08:20 20.1 C 73 % 1012.0 hPa 0.0 mm 3.0 km/h W-NW 296 10 min 0.9 UV-I 285.0 W/m 20.1 C 8.0 km/h
10.07.2020 08:10 19.7 C 73 % 1011.9 hPa 0.0 mm 3.8 km/h W 279 10 min 0.8 UV-I 258.0 W/m 19.7 C 11.3 km/h
10.07.2020 08:00 19.4 C 74 % 1012.0 hPa 0.0 mm 3.3 km/h W-NW 291 10 min 0.7 UV-I 251.0 W/m 19.4 C 11.3 km/h
10.07.2020 07:50 19.3 C 75 % 1011.9 hPa 0.0 mm 3.0 km/h W-NW 293 10 min 0.6 UV-I 232.0 W/m 19.3 C 6.4 km/h
10.07.2020 07:40 19.0 C 75 % 1011.9 hPa 0.0 mm 4.6 km/h W-NW 289 0 min 0.0 UV-I 158.0 W/m 19.0 C 9.7 km/h
10.07.2020 07:30 18.7 C 77 % 1011.9 hPa 0.0 mm 1.9 km/h W-SW 255 10 min 0.0 UV-I 178.0 W/m 18.7 C 6.4 km/h
10.07.2020 07:20 18.3 C 79 % 1012.0 hPa 0.0 mm 1.4 km/h W-SW 247 10 min 0.0 UV-I 149.0 W/m 18.3 C 11.3 km/h
10.07.2020 07:10 17.9 C 79 % 1011.9 hPa 0.0 mm 2.8 km/h W-SW 248 10 min 0.0 UV-I 118.0 W/m 17.9 C 6.4 km/h
10.07.2020 07:00 17.3 C 83 % 1011.9 hPa 0.0 mm 1.2 km/h W-SW 248 0 min 0.0 UV-I 95.0 W/m 17.3 C 4.8 km/h
10.07.2020 06:50 16.4 C 88 % 1012.0 hPa 0.0 mm 0.0 km/h O 96 0 min 0.0 UV-I 74.0 W/m 16.4 C 0.0 km/h
10.07.2020 06:40 16.0 C 89 % 1011.9 hPa 0.0 mm 0.0 km/h O 96 0 min 0.0 UV-I 58.0 W/m 16.0 C 0.0 km/h
10.07.2020 06:30 15.7 C 89 % 1012.0 hPa 0.0 mm 0.0 km/h O 96 0 min 0.0 UV-I 44.0 W/m 15.7 C 0.0 km/h
10.07.2020 06:20 15.5 C 90 % 1012.1 hPa 0.0 mm 0.0 km/h O 96 0 min 0.0 UV-I 28.0 W/m 15.5 C 0.0 km/h
10.07.2020 06:10 15.1 C 91 % 1012.0 hPa 0.0 mm 0.0 km/h O 96 0 min 0.0 UV-I 19.0 W/m 15.1 C 0.0 km/h
10.07.2020 06:00 14.8 C 91 % 1012.0 hPa 0.0 mm 0.0 km/h O 96 0 min 0.0 UV-I 14.0 W/m 14.8 C 0.0 km/h
10.07.2020 05:50 14.9 C 90 % 1012.1 hPa 0.0 mm 0.0 km/h O 96 0 min 0.0 UV-I 7.0 W/m 14.9 C 0.0 km/h
10.07.2020 05:40 15.0 C 90 % 1011.9 hPa 0.0 mm 0.5 km/h O 96 0 min 0.0 UV-I 0.0 W/m 15.0 C 3.2 km/h
10.07.2020 05:30 15.1 C 90 % 1011.9 hPa 0.0 mm 0.7 km/h O 96 0 min 0.0 UV-I 0.0 W/m 15.1 C 3.2 km/h
10.07.2020 05:20 15.2 C 90 % 1011.8 hPa 0.0 mm 1.2 km/h O 96 0 min 0.0 UV-I 0.0 W/m 15.2 C 3.2 km/h
10.07.2020 05:10 15.1 C 90 % 1011.9 hPa 0.0 mm 2.4 km/h O 96 0 min 0.0 UV-I 0.0 W/m 15.1 C 3.2 km/h
10.07.2020 05:00 15.3 C 89 % 1011.9 hPa 0.0 mm 2.2 km/h O 96 0 min 0.0 UV-I 0.0 W/m 15.3 C 4.8 km/h
10.07.2020 04:50 15.4 C 90 % 1012.0 hPa 0.0 mm 0.0 km/h O 96 0 min 0.0 UV-I 0.0 W/m 15.4 C 1.6 km/h
10.07.2020 04:40 15.4 C 90 % 1012.0 hPa 0.0 mm 0.1 km/h O 96 0 min 0.0 UV-I 0.0 W/m 15.4 C 1.6 km/h
10.07.2020 04:30 15.4 C 90 % 1012.0 hPa 0.0 mm 1.4 km/h O 96 0 min 0.0 UV-I 0.0 W/m 15.4 C 4.8 km/h
10.07.2020 04:20 15.4 C 89 % 1011.9 hPa 0.0 mm 1.1 km/h O 96 0 min 0.0 UV-I 0.0 W/m 15.4 C 3.2 km/h
10.07.2020 04:10 15.7 C 89 % 1012.2 hPa 0.0 mm 0.0 km/h O 96 0 min 0.0 UV-I 0.0 W/m 15.7 C 0.0 km/h
10.07.2020 04:00 15.7 C 89 % 1012.3 hPa 0.0 mm 0.0 km/h O 96 0 min 0.0 UV-I 0.0 W/m 15.7 C 0.0 km/h
10.07.2020 03:50 15.6 C 89 % 1012.3 hPa 0.0 mm 0.0 km/h O 96 0 min 0.0 UV-I 0.0 W/m 15.6 C 0.0 km/h
10.07.2020 03:40 15.7 C 89 % 1012.2 hPa 0.0 mm 1.0 km/h O 96 0 min 0.0 UV-I 0.0 W/m 15.7 C 3.2 km/h
10.07.2020 03:30 15.7 C 89 % 1012.3 hPa 0.0 mm 2.3 km/h O 96 0 min 0.0 UV-I 0.0 W/m 15.7 C 4.8 km/h
10.07.2020 03:20 15.6 C 89 % 1012.4 hPa 0.0 mm 0.0 km/h O 96 0 min 0.0 UV-I 0.0 W/m 15.6 C 0.0 km/h
10.07.2020 03:10 15.7 C 88 % 1012.5 hPa 0.0 mm 0.0 km/h O 96 0 min 0.0 UV-I 0.0 W/m 15.7 C 0.0 km/h
10.07.2020 03:00 16.0 C 88 % 1012.7 hPa 0.0 mm 0.0 km/h O 96 0 min 0.0 UV-I 0.0 W/m 16.0 C 0.0 km/h
10.07.2020 02:50 16.2 C 87 % 1012.7 hPa 0.0 mm 0.0 km/h O 96 0 min 0.0 UV-I 0.0 W/m 16.2 C 0.0 km/h
10.07.2020 02:40 16.3 C 87 % 1012.8 hPa 0.0 mm 0.0 km/h O 96 0 min 0.0 UV-I 0.0 W/m 16.3 C 0.0 km/h
10.07.2020 02:30 16.2 C 87 % 1012.7 hPa 0.0 mm 0.0 km/h O 96 0 min 0.0 UV-I 0.0 W/m 16.2 C 0.0 km/h
10.07.2020 02:20 16.2 C 86 % 1012.9 hPa 0.0 mm 0.0 km/h O 96 0 min 0.0 UV-I 0.0 W/m 16.2 C 0.0 km/h
10.07.2020 02:10 16.3 C 86 % 1012.9 hPa 0.0 mm 0.0 km/h O 96 0 min 0.0 UV-I 0.0 W/m 16.3 C 0.0 km/h
10.07.2020 02:00 16.6 C 85 % 1013.0 hPa 0.0 mm 0.0 km/h O 96 0 min 0.0 UV-I 0.0 W/m 16.6 C 0.0 km/h
_ Min-Zeit 06:00 18:00 16:00 - 02:00 - - - - - 06:00 02:00
Minimum _ 14.8 C 44 % 1010.9 hPa - 0.0 km/h - - - - - 14.8 C 0.0 km/h
_ Max-Zeit 14:20 01:10 01:00 23:20 14:40 - - 07:10 13:10 13:10 14:20 14:40
Maximum _ 30.6 C 95 % 1016.4 hPa 1.6 mm 13.4 km/h
N
- - 10 min 7.2 UV-I 1063.0 W/m 30.6 C 29.0 km/h
N-NW
Durchschnitt _ 22.1 C 69 % 1012.4 hPa #8.6 mm 4.7 km/h NW - #0 min. 0.0 UV-I 0.0 W/m 22.1 C 10.9 km/h